Time;durP1;ratioP1;P1;durP2;ratioP2;P2;SDS_P1;SDS_P2;PMS_P1;PMS_P2;Temp;Humidity;BMP_temperature;BMP_pressure;BME280_temperature;BME280_humidity;BME280_pressure;Samples;Min_cycle;Max_cycle;Signal;HPM_P1;HPM_P2
2021/08/21 00:01:52;;;;;;;5.78;3.05;;;;;;;16.34;96.69;100181.66;6306546;28;20066;-83
2021/08/21 00:04:52;;;;;;;5.20;3.33;;;;;;;16.26;96.05;100182.28;6305712;28;20126;-85
2021/08/21 00:07:53;;;;;;;7.50;3.40;;;;;;;16.19;96.69;100186.41;6273036;28;20475;-84
2021/08/21 00:10:54;;;;;;;8.07;3.45;;;;;;;16.17;95.93;100183.06;6289052;28;20168;-82
2021/08/21 00:13:55;;;;;;;3.70;2.97;;;;;;;16.18;97.63;100183.88;6305143;28;20046;-82
2021/08/21 00:16:56;;;;;;;10.88;3.80;;;;;;;16.14;98.31;100182.47;6305306;28;20044;-85
2021/08/21 00:19:56;;;;;;;3.58;2.95;;;;;;;16.09;98.73;100182.84;6290397;28;20394;-86
2021/08/21 00:22:57;;;;;;;4.95;2.88;;;;;;;16.07;99.25;100190.84;6289967;28;20093;-85
2021/08/21 00:25:58;;;;;;;5.65;3.50;;;;;;;15.98;100.00;100183.72;6289465;28;20040;-82
2021/08/21 00:28:59;;;;;;;7.88;3.33;;;;;;;15.94;100.00;100181.44;6289011;28;20109;-85
2021/08/21 00:32:00;;;;;;;8.18;3.65;;;;;;;15.88;100.00;100190.69;6289660;28;20119;-84
2021/08/21 00:35:01;;;;;;;3.67;3.08;;;;;;;15.84;100.00;100184.00;6288912;28;20056;-85
2021/08/21 00:38:02;;;;;;;7.13;3.58;;;;;;;15.80;100.00;100196.56;6289399;28;20493;-84
2021/08/21 00:41:02;;;;;;;8.55;3.15;;;;;;;15.75;100.00;100192.63;6305874;28;20040;-82
2021/08/21 00:44:06;;;;;;;7.22;3.45;;;;;;;15.66;100.00;100191.56;6288141;28;20043;-85
2021/08/21 00:47:18;;;;;;;5.03;3.28;;;;;;;15.66;100.00;100188.94;6304921;28;20047;-82
2021/08/21 00:50:18;;;;;;;4.78;3.50;;;;;;;15.62;100.00;100185.69;6304587;28;20055;-82
2021/08/21 00:53:19;;;;;;;6.40;3.58;;;;;;;15.58;100.00;100186.91;6271002;28;20047;-82
2021/08/21 00:56:20;;;;;;;5.53;3.58;;;;;;;15.55;100.00;100183.69;6271268;28;20047;-82
2021/08/21 00:59:21;;;;;;;4.75;3.13;;;;;;;15.50;100.00;100182.28;6287401;28;20414;-82
2021/08/21 01:02:22;;;;;;;8.07;3.72;;;;;;;15.44;100.00;100180.13;6270888;28;20079;-83
2021/08/21 01:05:23;;;;;;;6.13;3.20;;;;;;;15.45;100.00;100180.97;6287749;28;20050;-83
2021/08/21 01:08:24;;;;;;;6.95;3.50;;;;;;;15.39;100.00;100178.81;6288068;28;20036;-84
2021/08/21 01:11:25;;;;;;;6.60;3.50;;;;;;;15.41;100.00;100177.72;6303790;28;20398;-83
2021/08/21 01:14:27;;;;;;;8.70;3.63;;;;;;;15.43;100.00;100185.50;6287377;28;20105;-82
2021/08/21 01:17:29;;;;;;;5.63;3.40;;;;;;;15.37;100.00;100183.34;6287209;28;20402;-83
2021/08/21 01:20:33;;;;;;;4.93;3.70;;;;;;;15.33;100.00;100177.50;6303164;28;20069;-82
2021/08/21 01:23:36;;;;;;;8.93;3.50;;;;;;;15.32;100.00;100171.41;6287151;28;20036;-84
2021/08/21 01:26:54;;;;;;;4.50;3.58;;;;;;;15.32;100.00;100181.94;6303968;28;20119;-84
2021/08/21 01:29:55;;;;;;;4.80;2.92;;;;;;;15.29;100.00;100176.91;6287471;28;20044;-84
2021/08/21 01:32:55;;;;;;;5.07;3.40;;;;;;;15.20;100.00;100174.19;6304053;28;20048;-84
2021/08/21 01:35:56;;;;;;;6.32;3.55;;;;;;;15.20;100.00;100174.19;6295407;28;20213;-82
2021/08/21 01:38:58;;;;;;;7.68;3.53;;;;;;;15.15;100.00;100168.44;6278519;28;20040;-85
2021/08/21 01:41:59;;;;;;;6.35;3.85;;;;;;;15.20;100.00;100171.56;6278536;28;20041;-83
2021/08/21 01:45:00;;;;;;;6.45;4.18;;;;;;;15.28;100.00;100172.63;6296733;28;20102;-84
2021/08/21 01:48:01;;;;;;;9.48;3.88;;;;;;;15.30;100.00;100168.06;6295297;28;20442;-85
2021/08/21 01:51:02;;;;;;;5.00;3.55;;;;;;;15.31;99.68;100166.28;6277938;28;20097;-82
2021/08/21 01:54:03;;;;;;;6.30;3.87;;;;;;;15.27;99.42;100170.09;6277947;28;20080;-82
2021/08/21 01:57:06;;;;;;;7.93;3.80;;;;;;;15.09;100.00;100167.97;6295079;28;20049;-85
2021/08/21 02:00:09;;;;;;;7.40;3.95;;;;;;;15.10;100.00;100167.00;6296929;28;20040;-84
2021/08/21 02:03:10;;;;;;;5.50;3.67;;;;;;;15.11;100.00;100162.56;6278216;28;20044;-82
2021/08/21 02:06:11;;;;;;;7.45;3.85;;;;;;;15.10;100.00;100158.28;6277648;28;20067;-81
2021/08/21 02:09:14;;;;;;;6.27;3.37;;;;;;;15.18;100.00;100161.16;6294483;28;20059;-84
2021/08/21 02:12:16;;;;;;;5.80;4.45;;;;;;;15.26;100.00;100161.38;6294850;28;20048;-85
2021/08/21 02:15:17;;;;;;;6.95;3.80;;;;;;;15.36;99.70;100173.78;6279183;28;20127;-85
2021/08/21 02:18:18;;;;;;;7.17;4.40;;;;;;;15.43;99.13;100167.09;6295659;28;20453;-82
2021/08/21 02:21:19;;;;;;;5.15;3.65;;;;;;;15.50;98.48;100170.91;6295303;28;20045;-85
2021/08/21 02:24:25;;;;;;;5.85;4.00;;;;;;;15.57;96.85;100166.84;6278620;28;20411;-84
2021/08/21 02:27:29;;;;;;;5.15;3.67;;;;;;;15.62;96.84;100169.91;6279123;28;20062;-84
2021/08/21 02:30:29;;;;;;;6.57;4.05;;;;;;;15.68;97.07;100166.78;6279044;28;20098;-85
2021/08/21 02:33:30;;;;;;;7.03;4.30;;;;;;;15.77;97.75;100180.19;6262247;28;20045;-85
2021/08/21 02:36:32;;;;;;;8.85;4.30;;;;;;;15.83;100.00;100169.19;6278591;28;20498;-84
2021/08/21 02:39:35;;;;;;;6.70;4.00;;;;;;;15.82;97.23;100181.50;6295319;28;20041;-85
2021/08/21 02:42:36;;;;;;;7.32;4.10;;;;;;;15.86;96.25;100174.19;6295285;28;20045;-85
2021/08/21 02:45:37;;;;;;;8.23;4.40;;;;;;;15.88;96.23;100167.84;6278732;28;20040;-85
2021/08/21 02:48:37;;;;;;;6.18;3.80;;;;;;;15.97;100.00;100179.41;6278329;28;20120;-85
2021/08/21 02:51:38;;;;;;;7.15;4.25;;;;;;;16.04;99.72;100177.09;6294907;28;20467;-85
2021/08/21 02:54:39;;;;;;;7.13;3.95;;;;;;;16.06;100.00;100180.44;6278273;28;20060;-84
2021/08/21 02:57:39;;;;;;;7.00;3.90;;;;;;;16.02;97.36;100173.75;6278056;28;20048;-84
2021/08/21 03:00:43;;;;;;;7.50;4.38;;;;;;;16.01;95.69;100177.38;6261643;28;20053;-84
2021/08/21 03:03:44;;;;;;;6.78;3.67;;;;;;;15.96;96.27;100183.03;6294469;28;20064;-84
2021/08/21 03:06:45;;;;;;;8.07;3.95;;;;;;;15.96;95.48;100187.41;6294315;28;20037;-85
2021/08/21 03:09:46;;;;;;;7.03;3.90;;;;;;;15.96;95.01;100190.91;6277854;28;20041;-85
2021/08/21 03:12:46;;;;;;;5.93;4.15;;;;;;;15.98;94.48;100196.88;6277783;28;20037;-84
2021/08/21 03:15:47;;;;;;;13.15;4.57;;;;;;;16.01;93.51;100201.06;6277814;28;20055;-83
2021/08/21 03:18:48;;;;;;;9.60;4.10;;;;;;;16.07;93.09;100204.03;6261232;28;20063;-83
2021/08/21 03:21:49;;;;;;;11.55;3.85;;;;;;;16.12;93.33;100203.63;6277634;28;20082;-83
2021/08/21 03:24:49;;;;;;;5.07;3.92;;;;;;;16.22;92.08;100214.25;6260755;28;20040;-82
2021/08/21 03:27:50;;;;;;;9.60;4.32;;;;;;;16.25;92.09;100212.22;6276683;28;20044;-81
2021/08/21 03:30:51;;;;;;;8.02;4.60;;;;;;;16.24;92.51;100212.34;6277283;28;20052;-84
2021/08/21 03:33:52;;;;;;;6.28;4.35;;;;;;;16.24;92.31;100212.34;6260433;28;20045;-81
2021/08/21 03:36:53;;;;;;;5.68;3.72;;;;;;;16.30;92.99;100217.91;6277265;28;20537;-84
2021/08/21 03:39:54;;;;;;;13.40;4.82;;;;;;;16.31;93.13;100213.50;6276778;28;20166;-84
2021/08/21 03:42:55;;;;;;;8.15;4.78;;;;;;;16.30;93.72;100215.28;6296028;28;20457;-85
2021/08/21 03:45:55;;;;;;;13.20;4.53;;;;;;;16.28;93.88;100213.75;6298922;28;20045;-81
2021/08/21 03:48:56;;;;;;;7.38;4.72;;;;;;;16.28;94.23;100214.56;6297468;28;20770;-81
2021/08/21 03:51:57;;;;;;;9.40;4.32;;;;;;;16.24;93.75;100222.88;6298036;28;20048;-83
2021/08/21 03:54:58;;;;;;;8.15;4.55;;;;;;;16.23;94.34;100216.78;6297533;28;20052;-82
2021/08/21 03:58:00;;;;;;;6.88;4.50;;;;;;;16.31;94.51;100216.16;6281864;28;20047;-81
2021/08/21 04:01:01;;;;;;;7.15;4.40;;;;;;;16.31;94.60;100219.59;6264199;28;20047;-81
2021/08/21 04:04:02;;;;;;;7.75;4.88;;;;;;;16.35;94.45;100224.59;6281083;28;20518;-84
2021/08/21 04:07:03;;;;;;;6.43;4.68;;;;;;;16.38;94.23;100227.00;6281197;28;20041;-82
2021/08/21 04:10:04;;;;;;;9.37;5.50;;;;;;;16.40;94.70;100231.16;6298047;28;20054;-84
2021/08/21 04:13:07;;;;;;;7.25;5.13;;;;;;;16.48;93.62;100222.63;6299309;28;20044;-82
2021/08/21 04:16:08;;;;;;;14.15;5.30;;;;;;;16.52;93.56;100227.53;6297010;28;20052;-82
2021/08/21 04:19:09;;;;;;;13.05;5.00;;;;;;;16.58;93.71;100235.88;6263694;28;20392;-81
2021/08/21 04:22:10;;;;;;;11.43;4.97;;;;;;;16.61;93.75;100235.63;6280251;28;20037;-81
2021/08/21 04:25:11;;;;;;;8.45;5.43;;;;;;;16.66;93.14;100241.34;6263382;28;20093;-82
2021/08/21 04:28:12;;;;;;;8.20;5.50;;;;;;;16.66;93.86;100239.56;6280193;28;20037;-82
2021/08/21 04:31:12;;;;;;;9.70;5.13;;;;;;;16.68;93.88;100242.06;6263324;28;20051;-82
2021/08/21 04:34:13;;;;;;;12.07;5.57;;;;;;;16.70;92.68;100240.97;6280437;28;20060;-84
2021/08/21 04:37:14;;;;;;;12.10;6.28;;;;;;;16.75;92.52;100243.22;6281352;28;20106;-85
2021/08/21 04:40:16;;;;;;;11.57;5.37;;;;;;;16.80;92.25;100240.19;6281265;28;20406;-84
2021/08/21 04:43:19;;;;;;;11.82;5.50;;;;;;;16.84;91.73;100238.97;6264934;28;20056;-84
2021/08/21 04:46:20;;;;;;;9.55;5.90;;;;;;;16.93;91.58;100240.84;6297805;28;20041;-84
2021/08/21 04:49:20;;;;;;;8.90;5.25;;;;;;;16.92;92.22;100245.31;6281298;28;20042;-84
2021/08/21 04:52:22;;;;;;;11.80;5.43;;;;;;;16.99;91.75;100252.69;6280896;28;20075;-83
2021/08/21 04:55:23;;;;;;;7.88;5.40;;;;;;;17.02;92.98;100250.59;6297301;28;20040;-83
2021/08/21 04:58:23;;;;;;;8.27;5.55;;;;;;;17.05;92.46;100250.38;6264129;28;20043;-84
2021/08/21 05:01:24;;;;;;;17.80;5.53;;;;;;;17.10;91.52;100242.06;6272234;28;20499;-83
2021/08/21 05:04:25;;;;;;;10.50;5.30;;;;;;;17.15;95.10;100244.28;6256308;28;20041;-85
2021/08/21 05:07:29;;;;;;;9.48;5.40;;;;;;;17.22;98.78;100243.63;6272482;28;20514;-85
2021/08/21 05:10:29;;;;;;;8.00;5.30;;;;;;;17.29;98.48;100246.56;6272296;28;20041;-81
2021/08/21 05:13:31;;;;;;;10.30;5.20;;;;;;;17.32;99.25;100247.16;6271678;28;20380;-81
2021/08/21 05:16:32;;;;;;;8.23;4.78;;;;;;;17.32;94.36;100247.16;6272226;28;20048;-82
2021/08/21 05:22:48;;;;;;;10.65;4.55;;;;;;;17.46;95.79;100248.59;6288145;28;20071;-81
2021/08/21 05:25:49;;;;;;;8.95;4.60;;;;;;;17.55;99.02;100257.53;6271254;28;20554;-81
2021/08/21 05:28:50;;;;;;;7.07;5.00;;;;;;;17.61;100.00;100261.44;6278106;28;20040;-81
2021/08/21 05:31:51;;;;;;;9.50;4.80;;;;;;;17.66;98.00;100256.56;6312808;28;20044;-85
2021/08/21 05:34:52;;;;;;;7.55;4.78;;;;;;;17.68;92.43;100262.56;6265506;28;20098;-81
2021/08/21 05:37:52;;;;;;;10.03;4.47;;;;;;;17.76;91.55;100267.16;6304384;28;20435;-81
2021/08/21 05:40:53;;;;;;;8.88;4.07;;;;;;;17.83;93.21;100266.53;6286157;28;20040;-81
2021/08/21 05:43:55;;;;;;;6.73;4.23;;;;;;;17.93;94.45;100274.44;6286657;28;20032;-81
2021/08/21 05:46:56;;;;;;;;;;;;;;;17.96;93.47;100276.84;6269504;28;20040;-82
2021/08/21 05:50:00;;;;;;;7.13;4.00;;;;;;;18.03;88.38;100271.84;6321385;28;19966;-81
2021/08/21 05:53:01;;;;;;;8.38;4.20;;;;;;;18.10;86.80;100280.91;6287688;28;20071;-86
2021/08/21 05:56:02;;;;;;;5.47;3.67;;;;;;;18.11;84.34;100280.75;6288324;28;20044;-85
2021/08/21 05:59:03;;;;;;;6.55;4.50;;;;;;;18.16;86.06;100280.34;6271646;28;20379;-86
2021/08/21 06:02:04;;;;;;;6.27;4.17;;;;;;;18.26;86.83;100283.84;6305275;28;20044;-85
2021/08/21 06:05:05;;;;;;;7.60;4.53;;;;;;;18.34;86.86;100283.13;6287928;28;20039;-84
2021/08/21 06:08:06;;;;;;;8.93;4.53;;;;;;;18.41;86.41;100286.91;6288697;28;20039;-86
2021/08/21 06:11:07;;;;;;;11.17;4.67;;;;;;;18.50;84.09;100286.06;6289371;28;20036;-85
2021/08/21 06:14:08;;;;;;;7.00;4.03;;;;;;;18.59;84.31;100289.66;6323641;28;20044;-86
2021/08/21 06:17:09;;;;;;;6.80;4.30;;;;;;;18.69;83.42;100285.19;6272418;28;20097;-86
2021/08/21 06:20:10;;;;;;;7.73;5.13;;;;;;;18.80;84.90;100284.28;6305917;28;20047;-86
2021/08/21 06:23:11;;;;;;;8.63;4.30;;;;;;;18.91;84.32;100292.03;6305511;28;20043;-85
2021/08/21 06:26:12;;;;;;;10.30;4.53;;;;;;;19.03;82.77;100289.25;6255709;28;20490;-85
2021/08/21 06:29:13;;;;;;;5.37;4.10;;;;;;;19.15;85.72;100298.69;6288724;28;20051;-85
2021/08/21 06:32:14;;;;;;;22.30;5.20;;;;;;;19.26;87.06;100297.66;6305273;28;20558;-85
2021/08/21 06:35:15;;;;;;;8.43;4.43;;;;;;;19.33;82.67;100298.75;6271682;28;20102;-85
2021/08/21 06:38:15;;;;;;;12.83;4.07;;;;;;;19.40;82.32;100304.31;6304894;28;20036;-84
2021/08/21 06:41:19;;;;;;;9.83;4.20;;;;;;;19.49;83.49;100292.84;6271074;28;20438;-85
2021/08/21 06:44:20;;;;;;;7.22;4.55;;;;;;;19.64;83.27;100296.69;6287903;28;20047;-87
2021/08/21 06:47:21;;;;;;;8.20;3.80;;;;;;;19.77;81.72;100298.19;6321174;28;20075;-84
2021/08/21 06:50:22;;;;;;;13.00;4.70;;;;;;;19.89;85.81;100300.50;6304223;28;20721;-86
2021/08/21 06:53:24;;;;;;;;;;;;;;;19.97;84.74;100306.84;6321112;28;20493;-87
2021/08/21 06:56:25;;;;;;;10.23;4.63;;;;;;;20.08;84.53;100310.13;6287012;28;20342;-86
2021/08/21 06:59:26;;;;;;;11.07;4.30;;;;;;;20.21;79.16;100309.78;6245837;28;20044;-86
2021/08/21 07:02:27;;;;;;;13.23;4.73;;;;;;;20.32;79.81;100316.66;6229020;28;20074;-84
2021/08/21 07:05:27;;;;;;;13.10;4.93;;;;;;;20.43;77.69;100315.63;6246016;28;20094;-85
2021/08/21 07:08:28;;;;;;;8.23;4.70;;;;;;;20.59;77.67;100323.78;6262952;28;20514;-84
2021/08/21 07:11:29;;;;;;;13.30;3.80;;;;;;;20.68;74.29;100316.72;6296930;28;20114;-84
2021/08/21 07:14:30;;;;;;;7.90;3.97;;;;;;;20.78;73.36;100319.28;6262179;28;20395;-84
2021/08/21 07:17:30;;;;;;;9.93;4.20;;;;;;;20.93;72.51;100323.03;6263770;28;20380;-84
2021/08/21 07:20:31;;;;;;;6.90;4.10;;;;;;;21.06;72.00;100319.97;6250790;28;20063;-85
2021/08/21 07:23:32;;;;;;;18.97;3.23;;;;;;;21.20;64.41;100321.25;6266138;28;20471;-83
2021/08/21 07:26:33;;;;;;;3.40;2.73;;;;;;;21.43;64.77;100325.06;6248941;28;20036;-85
2021/08/21 07:29:34;;;;;;;6.83;2.60;;;;;;;21.57;59.90;100323.63;6286294;28;20043;-86
2021/08/21 07:32:35;;;;;;;4.15;3.00;;;;;;;21.69;60.41;100332.16;6291290;28;20064;-84
2021/08/21 07:35:35;;;;;;;7.40;2.70;;;;;;;21.80;57.88;100331.88;6275014;28;20056;-84
2021/08/21 07:38:36;;;;;;;7.63;2.53;;;;;;;21.94;58.26;100333.09;6308363;28;20092;-83
2021/08/21 07:41:37;;;;;;;12.10;2.43;;;;;;;21.98;53.62;100341.59;6257899;28;20056;-87
2021/08/21 07:44:38;;;;;;;5.37;2.40;;;;;;;22.08;56.33;100344.94;6274892;28;20036;-85
2021/08/21 07:47:38;;;;;;;5.27;2.63;;;;;;;22.09;55.78;100339.47;6291167;28;20173;-84
2021/08/21 07:50:39;;;;;;;6.60;2.70;;;;;;;22.24;55.82;100336.22;6290735;28;20068;-84
2021/08/21 07:53:40;;;;;;;8.17;2.50;;;;;;;22.34;54.74;100344.84;6274797;28;20052;-84
2021/08/21 07:56:40;;;;;;;4.77;2.60;;;;;;;22.36;54.83;100344.69;6307910;28;20048;-84
2021/08/21 07:59:41;;;;;;;5.17;2.50;;;;;;;22.50;55.71;100352.84;6307268;28;20094;-84
2021/08/21 08:02:46;;;;;;;6.40;3.20;;;;;;;22.66;55.49;100345.91;6306967;28;20532;-82
2021/08/21 08:05:46;;;;;;;11.60;3.90;;;;;;;22.88;56.92;100349.75;6307239;28;20032;-82
2021/08/21 08:08:47;;;;;;;4.90;2.80;;;;;;;22.93;56.79;100350.06;6291684;28;20498;-82
2021/08/21 08:11:48;;;;;;;5.07;3.10;;;;;;;23.08;55.47;100348.44;6248320;28;20123;-83
2021/08/21 08:14:49;;;;;;;3.43;2.73;;;;;;;23.23;52.88;100350.41;6299650;28;20066;-84
2021/08/21 08:17:52;;;;;;;6.95;2.50;;;;;;;23.23;53.40;100347.75;6270985;28;20040;-83
2021/08/21 08:20:53;;;;;;;3.47;2.43;;;;;;;23.34;56.31;100353.53;6288924;28;20552;-84
2021/08/21 08:23:55;;;;;;;4.57;2.67;;;;;;;23.51;57.96;100354.34;6305362;28;20040;-84
2021/08/21 08:26:56;;;;;;;7.32;2.30;;;;;;;23.44;53.06;100358.69;6304878;28;20054;-84
2021/08/21 08:29:57;;;;;;;2.50;2.13;;;;;;;23.65;53.32;100352.78;6287763;28;20114;-82
2021/08/21 08:32:58;;;;;;;3.23;2.00;;;;;;;23.60;52.44;100359.66;6272598;28;20040;-83
2021/08/21 08:35:59;;;;;;;3.37;2.33;;;;;;;23.96;53.08;100361.88;6263935;28;20143;-82
2021/08/21 08:38:59;;;;;;;4.60;2.80;;;;;;;24.03;51.78;100357.50;6281972;28;20093;-82
2021/08/21 08:42:01;;;;;;;5.53;2.60;;;;;;;24.05;52.55;100351.03;6263634;28;20094;-82
2021/08/21 08:45:02;;;;;;;9.02;2.90;;;;;;;24.28;51.16;100350.22;6263372;28;20044;-82
2021/08/21 08:48:04;;;;;;;7.00;2.65;;;;;;;24.48;52.07;100359.44;6263122;28;20127;-82
2021/08/21 08:51:06;;;;;;;7.93;2.65;;;;;;;24.48;55.96;100350.59;6256311;28;20037;-84
2021/08/21 08:54:07;;;;;;;7.03;2.60;;;;;;;24.54;50.77;100355.25;6271106;28;20063;-83
2021/08/21 08:57:08;;;;;;;7.17;2.40;;;;;;;24.88;50.05;100354.81;6236028;28;20492;-83
2021/08/21 09:00:10;;;;;;;4.32;2.30;;;;;;;24.96;50.66;100355.75;6269593;28;20079;-84
2021/08/21 09:03:21;;;;;;;7.75;2.30;;;;;;;25.03;47.59;100351.38;6270233;28;20052;-84
2021/08/21 09:06:34;;;;;;;5.40;2.33;;;;;;;24.94;50.99;100348.75;6270439;28;20136;-84
2021/08/21 09:09:35;;;;;;;4.68;2.47;;;;;;;24.83;49.63;100346.53;6261901;28;20037;-85
2021/08/21 09:12:36;;;;;;;3.28;2.22;;;;;;;24.97;50.84;100342.22;6299604;28;20082;-84
2021/08/21 09:15:39;;;;;;;4.13;2.50;;;;;;;24.91;50.64;100345.63;6299187;28;20059;-83
2021/08/21 09:18:43;;;;;;;5.45;2.42;;;;;;;25.05;52.86;100350.16;6302312;28;20284;-83
2021/08/21 09:21:58;;;;;;;3.05;2.38;;;;;;;25.18;51.20;100349.53;6302739;28;20028;-82
2021/08/21 09:24:58;;;;;;;7.38;2.65;;;;;;;25.25;51.25;100350.50;6305109;28;20033;-82
2021/08/21 09:28:17;;;;;;;5.47;2.53;;;;;;;25.08;47.27;100338.28;6286696;28;20067;-82
2021/08/21 09:31:20;;;;;;;5.30;2.80;;;;;;;25.21;51.64;100346.56;6305974;28;20990;-82
2021/08/21 09:34:21;;;;;;;6.05;2.70;;;;;;;25.34;49.14;100338.72;6280958;28;20056;-83
2021/08/21 09:37:21;;;;;;;6.65;3.17;;;;;;;25.36;49.56;100340.41;6300003;28;20492;-83
2021/08/21 09:40:29;;;;;;;6.77;2.50;;;;;;;25.57;49.01;100347.66;6269934;28;20048;-82
2021/08/21 09:43:33;;;;;;;5.18;2.70;;;;;;;25.66;48.93;100341.25;6301018;28;20033;-83
2021/08/21 09:46:35;;;;;;;5.68;2.95;;;;;;;25.55;47.54;100339.84;6299242;28;20040;-82
2021/08/21 09:49:36;;;;;;;5.85;2.85;;;;;;;25.80;48.33;100348.41;6280713;28;20757;-83
2021/08/21 09:52:36;;;;;;;7.35;2.45;;;;;;;25.79;45.69;100345.91;6301738;28;20047;-83
2021/08/21 09:55:39;;;;;;;7.20;2.60;;;;;;;26.19;48.49;100339.25;6268640;28;20040;-84
2021/08/21 09:58:39;;;;;;;10.00;2.20;;;;;;;26.27;44.99;100336.44;6296141;28;21404;-83
2021/08/21 10:01:45;;;;;;;5.95;2.35;;;;;;;26.16;44.39;100344.97;6284259;28;20040;-85
2021/08/21 10:04:49;;;;;;;3.75;2.67;;;;;;;26.12;46.68;100341.81;6286768;28;20123;-83
2021/08/21 10:08:04;;;;;;;7.43;2.78;;;;;;;26.22;47.08;100335.34;6281450;28;20050;-84
2021/08/21 10:11:05;;;;;;;9.98;2.60;;;;;;;26.38;47.15;100336.94;6285676;28;20051;-84
2021/08/21 10:14:06;;;;;;;3.45;2.60;;;;;;;26.59;43.96;100338.84;6301133;28;20032;-83
2021/08/21 10:17:08;;;;;;;;;;;;;;;26.77;46.86;100338.38;6283913;28;20040;-84
2021/08/21 10:20:11;;;;;;;;;;;;;;;26.82;44.05;100325.25;6283085;28;19928;-84
2021/08/21 10:23:14;;;;;;;4.15;2.35;;;;;;;26.50;45.60;100330.94;6300916;28;19994;-84
2021/08/21 10:26:33;;;;;;;6.82;2.22;;;;;;;26.84;44.91;100323.22;6304696;28;20040;-84
2021/08/21 10:29:34;;;;;;;6.97;2.50;;;;;;;26.89;44.90;100326.97;6296250;28;20032;-83
2021/08/21 10:32:40;;;;;;;6.63;2.65;;;;;;;27.11;43.74;100324.25;6303870;28;20977;-83
2021/08/21 10:35:55;;;;;;;5.60;2.45;;;;;;;27.35;46.33;100319.50;6306192;28;20048;-83
2021/08/21 10:39:13;;;;;;;5.22;2.33;;;;;;;27.71;43.12;100324.63;6305730;28;20051;-87
2021/08/21 10:42:30;;;;;;;6.30;2.55;;;;;;;27.88;43.65;100319.75;6308937;28;20053;-83
2021/08/21 10:45:40;;;;;;;9.45;2.50;;;;;;;27.87;41.93;100313.56;6291048;28;20110;-84
2021/08/21 10:48:40;;;;;;;4.53;2.53;;;;;;;28.30;46.79;100307.91;6309369;28;20425;-84
2021/08/21 10:51:42;;;;;;;3.55;2.28;;;;;;;28.64;39.61;100306.16;6329042;28;20040;-84
2021/08/21 10:54:45;;;;;;;3.95;2.60;;;;;;;28.36;40.64;100306.28;6309760;28;20047;-83
2021/08/21 10:58:17;;;;;;;4.50;2.13;;;;;;;28.42;41.32;100312.69;6291869;28;20040;-84
2021/08/21 11:01:22;;;;;;;4.30;2.25;;;;;;;27.89;40.43;100308.03;6292820;28;20060;-83
2021/08/21 11:04:34;;;;;;;10.00;2.40;;;;;;;27.91;40.19;100305.97;6289439;28;20588;-85
2021/08/21 11:07:37;;;;;;;3.45;2.42;;;;;;;28.44;43.85;100300.72;6289388;28;20032;-84
2021/08/21 11:10:38;;;;;;;2.70;2.15;;;;;;;28.86;41.82;100305.91;6306991;28;20049;-83
2021/08/21 11:13:59;;;;;;;5.90;2.13;;;;;;;28.60;37.69;100298.69;6289143;28;20472;-83
2021/08/21 11:17:02;;;;;;;4.45;1.80;;;;;;;28.76;34.27;100303.66;6290844;28;20532;-85
2021/08/21 11:20:30;;;;;;;2.58;1.92;;;;;;;28.69;36.17;100300.16;6305858;28;20040;-84
2021/08/21 11:23:50;;;;;;;5.55;2.22;;;;;;;28.99;36.54;100297.03;6322760;28;20044;-85
2021/08/21 11:27:27;;;;;;;3.67;2.10;;;;;;;28.93;35.79;100296.84;6322479;28;20094;-85
2021/08/21 11:30:29;;;;;;;3.85;2.03;;;;;;;29.39;37.84;100297.81;6322608;28;20039;-85
2021/08/21 11:33:31;;;;;;;3.80;1.73;;;;;;;29.50;36.29;100294.44;6306196;28;20040;-84
2021/08/21 11:36:32;;;;;;;3.90;1.83;;;;;;;29.25;34.02;100293.50;6272748;28;20091;-84
2021/08/21 11:39:32;;;;;;;3.03;1.83;;;;;;;29.02;35.72;100294.75;6293731;28;20040;-82
2021/08/21 11:42:54;;;;;;;5.03;1.77;;;;;;;29.27;33.36;100291.44;6280888;28;20068;-84
2021/08/21 11:45:57;;;;;;;7.95;2.20;;;;;;;29.35;36.57;100298.44;6284875;28;20041;-83
2021/08/21 11:49:07;;;;;;;4.18;2.05;;;;;;;28.97;35.35;100302.59;6280664;28;20044;-85
2021/08/21 11:52:08;;;;;;;2.43;1.90;;;;;;;28.79;36.12;100297.06;6280296;28;20098;-84
2021/08/21 11:55:10;;;;;;;2.67;2.00;;;;;;;29.27;35.11;100300.31;6319359;28;20067;-84
2021/08/21 11:58:12;;;;;;;2.08;1.80;;;;;;;29.75;37.13;100301.00;6288076;28;20110;-86
2021/08/21 12:01:14;;;;;;;4.13;2.13;;;;;;;29.84;37.34;100302.44;6304925;28;20040;-84
2021/08/21 12:07:33;;;;;;;5.00;2.03;;;;;;;29.01;38.31;100290.41;6288489;28;20036;-85
2021/08/21 12:10:44;;;;;;;4.55;2.10;;;;;;;29.24;37.04;100292.69;6305258;28;20044;-87
2021/08/21 12:13:45;;;;;;;3.08;2.00;;;;;;;28.56;35.73;100289.38;6288781;28;20100;-87
2021/08/21 12:16:48;;;;;;;4.55;2.35;;;;;;;27.88;36.44;100277.72;6291594;28;20076;-91
2021/08/21 12:19:49;;;;;;;4.18;2.03;;;;;;;27.60;37.24;100276.94;6306873;28;20040;-86
2021/08/21 12:22:50;;;;;;;4.60;2.30;;;;;;;27.02;39.68;100280.72;6273116;28;20101;-84
2021/08/21 12:25:56;;;;;;;3.03;1.85;;;;;;;27.14;42.39;100276.47;6286464;28;20047;-83
2021/08/21 12:28:57;;;;;;;6.35;2.03;;;;;;;27.81;45.40;100279.50;6304534;28;20040;-82
2021/08/21 12:31:59;;;;;;;6.90;2.33;;;;;;;28.16;37.55;100273.22;6270809;28;20078;-83
2021/08/21 12:35:20;;;;;;;3.65;2.20;;;;;;;28.10;36.63;100278.38;6288547;28;20063;-88
2021/08/21 12:38:21;;;;;;;3.85;2.28;;;;;;;28.26;38.27;100274.47;6279903;28;20166;-90
2021/08/21 12:41:21;;;;;;;3.10;2.13;;;;;;;27.79;38.08;100270.00;6287959;28;20399;-83
2021/08/21 12:44:42;;;;;;;5.45;2.25;;;;;;;27.80;38.12;100271.66;6288218;28;20048;-88
2021/08/21 12:47:42;;;;;;;3.05;2.10;;;;;;;27.92;38.54;100273.59;6304630;28;20044;-85
2021/08/21 12:50:43;;;;;;;2.80;2.05;;;;;;;28.00;37.15;100261.03;6305202;28;20044;-84
2021/08/21 12:53:44;;;;;;;4.95;2.20;;;;;;;27.76;38.02;100263.19;6288043;28;20391;-83
2021/08/21 12:57:06;;;;;;;6.22;2.08;;;;;;;27.25;38.40;100261.72;6287785;28;20482;-84
2021/08/21 13:00:12;;;;;;;5.40;2.58;;;;;;;27.23;38.21;100266.47;6295060;28;20056;-85
2021/08/21 13:03:16;;;;;;;4.65;2.63;;;;;;;27.13;38.22;100271.31;6303259;28;20043;-85
2021/08/21 13:06:18;;;;;;;5.35;2.40;;;;;;;27.55;35.21;100264.16;6303256;28;20082;-85
2021/08/21 13:09:18;;;;;;;3.15;2.10;;;;;;;27.69;40.00;100255.13;6303391;28;20040;-84
2021/08/21 13:12:19;;;;;;;3.25;2.20;;;;;;;27.95;35.70;100253.59;6286893;28;20299;-85
2021/08/21 13:15:21;;;;;;;4.35;3.10;;;;;;;27.99;35.21;100257.53;6269604;28;20068;-87
2021/08/21 13:18:22;;;;;;;4.15;2.58;;;;;;;27.93;34.21;100251.09;6287311;28;20048;-85
2021/08/21 13:21:22;;;;;;;6.60;2.45;;;;;;;28.22;35.01;100254.47;6261286;28;20102;-89
2021/08/21 13:24:23;;;;;;;2.47;2.28;;;;;;;27.95;34.05;100253.59;6263047;28;20040;-86
2021/08/21 13:27:25;;;;;;;5.07;2.35;;;;;;;27.85;36.37;100259.28;6262957;28;20044;-85
2021/08/21 13:30:26;;;;;;;2.45;2.20;;;;;;;28.21;31.70;100254.66;6245647;28;20084;-89
2021/08/21 13:33:27;;;;;;;3.45;2.50;;;;;;;28.15;33.56;100253.63;6262311;28;20108;-86
2021/08/21 13:36:28;;;;;;;4.25;2.15;;;;;;;28.16;34.76;100244.53;6261394;28;20064;-85
2021/08/21 13:39:29;;;;;;;2.67;2.20;;;;;;;28.30;33.71;100248.06;6254582;28;20041;-84
2021/08/21 13:42:29;;;;;;;2.92;2.30;;;;;;;28.32;36.30;100248.69;6277933;28;20097;-85
2021/08/21 13:45:32;;;;;;;3.92;2.78;;;;;;;28.01;37.23;100239.38;6262050;28;20082;-86
2021/08/21 13:48:33;;;;;;;5.63;2.78;;;;;;;28.05;35.62;100239.78;6280006;28;20487;-89
2021/08/21 13:51:35;;;;;;;4.63;2.33;;;;;;;27.86;36.12;100241.34;6279758;28;20056;-88
2021/08/21 13:54:36;;;;;;;4.43;3.03;;;;;;;27.80;38.84;100234.13;6245805;28;20037;-84
2021/08/21 13:57:37;;;;;;;3.10;2.38;;;;;;;27.85;38.85;100237.03;6247473;28;20052;-86
2021/08/21 14:00:38;;;;;;;3.20;2.70;;;;;;;27.92;38.42;100240.56;6262373;28;20041;-88
2021/08/21 14:03:38;;;;;;;8.68;5.15;;;;;;;27.98;37.08;100237.06;6278686;28;20507;-88
2021/08/21 14:06:40;;;;;;;3.17;2.20;;;;;;;27.94;35.85;100227.78;6261602;28;20066;-85
2021/08/21 14:09:40;;;;;;;;;;;;;;;28.03;38.17;100231.13;6245628;28;20491;-86
2021/08/21 14:12:41;;;;;;;4.63;2.63;;;;;;;27.90;36.36;100227.38;6261625;28;19927;-85
2021/08/21 14:15:42;;;;;;;6.63;2.40;;;;;;;27.82;35.35;100224.88;6277473;28;20067;-85